createdAt,value
2018-03-27T00:00:17.778Z,1009.59
2018-03-27T00:01:17.750Z,1009.57
2018-03-27T00:02:17.739Z,1009.60
2018-03-27T00:03:17.719Z,1009.62
2018-03-27T00:04:17.702Z,1009.63
2018-03-27T00:05:17.718Z,1009.63
2018-03-27T00:06:17.659Z,1009.62
2018-03-27T00:07:17.640Z,1009.68
2018-03-27T00:08:17.626Z,1009.65
2018-03-27T00:09:17.612Z,1009.68
2018-03-27T00:10:17.586Z,1009.67
2018-03-27T00:11:17.564Z,1009.68
2018-03-27T00:12:17.549Z,1009.71
2018-03-27T00:13:17.529Z,1009.66
2018-03-27T00:14:17.519Z,1009.60
2018-03-27T00:15:17.489Z,1009.59
2018-03-27T00:16:17.469Z,1009.56
2018-03-27T00:17:17.450Z,1009.55
2018-03-27T00:18:17.429Z,1009.56
2018-03-27T00:19:17.408Z,1009.62
2018-03-27T00:20:17.389Z,1009.60
2018-03-27T00:21:17.368Z,1009.65
2018-03-27T00:22:17.354Z,1009.60
2018-03-27T00:23:17.346Z,1009.62
2018-03-27T00:24:17.312Z,1009.60
2018-03-27T00:25:17.291Z,1009.60
2018-03-27T00:26:17.277Z,1009.60
2018-03-27T00:27:17.258Z,1009.56
2018-03-27T00:28:17.242Z,1009.54
2018-03-27T00:29:17.214Z,1009.55
2018-03-27T00:30:17.199Z,1009.54
2018-03-27T00:31:17.178Z,1009.59
2018-03-27T00:32:17.162Z,1009.55
2018-03-27T00:33:17.138Z,1009.55
2018-03-27T00:34:17.118Z,1009.55
2018-03-27T00:35:17.106Z,1009.54
2018-03-27T00:36:17.083Z,1009.55
2018-03-27T00:37:17.075Z,1009.52
2018-03-27T00:38:17.043Z,1009.52
2018-03-27T00:39:17.030Z,1009.55
2018-03-27T00:40:17.007Z,1009.54
2018-03-27T00:41:16.988Z,1009.54
2018-03-27T00:42:16.966Z,1009.53
2018-03-27T00:43:16.950Z,1009.56
2018-03-27T00:44:16.979Z,1009.55
2018-03-27T00:45:16.909Z,1009.54
2018-03-27T00:46:16.891Z,1009.54
2018-03-27T00:47:16.873Z,1009.54
2018-03-27T00:48:16.860Z,1009.53
2018-03-27T00:49:16.842Z,1009.54
2018-03-27T00:50:16.819Z,1009.56
2018-03-27T00:51:16.799Z,1009.54
2018-03-27T00:52:16.777Z,1009.56
2018-03-27T00:53:16.760Z,1009.58
2018-03-27T00:54:16.739Z,1009.55
2018-03-27T00:55:16.719Z,1009.63
2018-03-27T00:56:16.700Z,1009.62
2018-03-27T00:57:16.680Z,1009.59
2018-03-27T00:58:16.666Z,1009.58
2018-03-27T00:59:16.646Z,1009.57
2018-03-27T01:00:16.675Z,1009.55
2018-03-27T01:01:16.604Z,1009.57
2018-03-27T01:02:16.589Z,1009.53
2018-03-27T01:03:16.573Z,1009.57
2018-03-27T01:04:16.558Z,1009.56
2018-03-27T01:05:16.527Z,1009.58
2018-03-27T01:06:16.560Z,1009.52
2018-03-27T01:07:16.492Z,1009.51
2018-03-27T01:08:16.471Z,1009.51
2018-03-27T01:09:16.457Z,1009.50
2018-03-27T01:10:16.489Z,1009.50
2018-03-27T01:11:16.416Z,1009.49
2018-03-27T01:12:16.446Z,1009.50
2018-03-27T01:13:16.377Z,1009.48
2018-03-27T01:14:16.357Z,1009.43
2018-03-27T01:15:16.588Z,1009.44
2018-03-27T01:16:16.320Z,1009.41
2018-03-27T01:17:16.302Z,1009.44
2018-03-27T01:18:16.280Z,1009.40
2018-03-27T01:19:16.263Z,1009.42
2018-03-27T01:20:16.241Z,1009.45
2018-03-27T01:21:16.227Z,1009.40
2018-03-27T01:22:16.209Z,1009.39
2018-03-27T01:23:16.189Z,1009.38
2018-03-27T01:24:16.170Z,1009.38
2018-03-27T01:25:16.147Z,1009.36
2018-03-27T01:26:16.129Z,1009.33
2018-03-27T01:27:16.108Z,1009.39
2018-03-27T01:28:16.093Z,1009.37
2018-03-27T01:29:16.069Z,1009.32
2018-03-27T01:30:16.068Z,1009.33
2018-03-27T01:31:16.034Z,1009.30
2018-03-27T01:32:16.013Z,1009.29
2018-03-27T01:33:15.999Z,1009.26
2018-03-27T01:34:15.976Z,1009.25
2018-03-27T01:35:15.960Z,1009.19
2018-03-27T01:36:15.939Z,1009.23
2018-03-27T01:37:15.919Z,1009.19
2018-03-27T01:38:15.899Z,1009.19
2018-03-27T01:39:15.881Z,1009.18
2018-03-27T01:40:15.863Z,1009.18
2018-03-27T01:41:15.841Z,1009.19
2018-03-27T01:42:15.825Z,1009.17
2018-03-27T01:43:15.820Z,1009.17
2018-03-27T01:44:15.790Z,1009.16
2018-03-27T01:45:15.776Z,1009.13
2018-03-27T01:46:15.751Z,1009.14
2018-03-27T01:47:15.733Z,1009.11
2018-03-27T01:48:15.710Z,1009.11
2018-03-27T01:49:15.701Z,1009.09
2018-03-27T01:50:15.682Z,1009.07
2018-03-27T01:51:15.660Z,1009.08
2018-03-27T01:52:15.636Z,1009.06
2018-03-27T01:53:15.620Z,1009.04
2018-03-27T01:54:15.600Z,1009.00
2018-03-27T01:55:15.579Z,1009.01
2018-03-27T01:56:15.559Z,1008.96
2018-03-27T01:57:15.540Z,1008.98
2018-03-27T01:58:15.520Z,1008.94
2018-03-27T01:59:15.504Z,1008.94
2018-03-27T02:00:15.480Z,1008.94
2018-03-27T02:01:15.465Z,1008.95
2018-03-27T02:02:15.449Z,1008.97
2018-03-27T02:03:15.432Z,1008.95
2018-03-27T02:04:15.405Z,1008.95
2018-03-27T02:05:15.418Z,1008.95
2018-03-27T02:06:15.370Z,1008.93
2018-03-27T02:07:15.349Z,1008.92
2018-03-27T02:08:15.336Z,1008.89
2018-03-27T02:09:15.309Z,1008.93
2018-03-27T02:10:15.291Z,1008.92
2018-03-27T02:11:15.283Z,1008.91
2018-03-27T02:12:15.352Z,1008.92
2018-03-27T02:13:15.240Z,1008.90
2018-03-27T02:14:15.216Z,1008.93
2018-03-27T02:15:15.199Z,1008.89
2018-03-27T02:16:15.178Z,1008.90
2018-03-27T02:17:15.157Z,1008.91
2018-03-27T02:18:15.186Z,1008.91
2018-03-27T02:19:15.120Z,1008.89
2018-03-27T02:20:15.099Z,1008.90
2018-03-27T02:21:15.079Z,1008.88
2018-03-27T02:22:15.060Z,1008.87
2018-03-27T02:23:15.039Z,1008.90
2018-03-27T02:24:15.020Z,1008.91
2018-03-27T02:25:15.009Z,1008.91
2018-03-27T02:26:14.982Z,1008.87
2018-03-27T02:27:14.970Z,1008.88
2018-03-27T02:28:14.996Z,1008.86
2018-03-27T02:29:14.930Z,1008.90
2018-03-27T02:30:14.909Z,1008.91
2018-03-27T02:31:14.887Z,1008.89
2018-03-27T02:32:14.871Z,1008.87
2018-03-27T02:33:14.851Z,1008.94
2018-03-27T02:34:14.828Z,1008.90
2018-03-27T02:35:14.811Z,1008.92
2018-03-27T02:36:14.790Z,1008.94
2018-03-27T02:37:14.771Z,1008.91
2018-03-27T02:38:14.804Z,1008.91
2018-03-27T02:39:14.742Z,1008.90
2018-03-27T02:40:14.722Z,1008.88
2018-03-27T02:41:14.703Z,1008.89
2018-03-27T02:42:14.681Z,1008.86
2018-03-27T02:43:14.663Z,1008.88
2018-03-27T02:44:14.641Z,1008.86
2018-03-27T02:45:14.619Z,1008.83
2018-03-27T02:46:14.598Z,1008.84
2018-03-27T02:47:14.580Z,1008.82
2018-03-27T02:48:14.561Z,1008.81
2018-03-27T02:49:14.541Z,1008.81
2018-03-27T02:50:14.527Z,1008.83
2018-03-27T02:51:14.501Z,1008.82
2018-03-27T02:52:14.485Z,1008.81
2018-03-27T02:53:14.476Z,1008.80
2018-03-27T02:54:14.451Z,1008.78
2018-03-27T02:55:14.427Z,1008.80
2018-03-27T02:56:14.407Z,1008.79
2018-03-27T02:57:14.391Z,1008.77
2018-03-27T02:58:14.381Z,1008.72
2018-03-27T02:59:14.346Z,1008.74
2018-03-27T03:00:14.331Z,1008.72
2018-03-27T03:01:14.310Z,1008.68
2018-03-27T03:02:14.289Z,1008.66
2018-03-27T03:03:14.272Z,1008.65
2018-03-27T03:04:14.249Z,1008.66
2018-03-27T03:05:14.229Z,1008.63
2018-03-27T03:06:14.231Z,1008.63
2018-03-27T03:07:14.200Z,1008.64
2018-03-27T03:08:14.181Z,1008.63
2018-03-27T03:09:14.152Z,1008.63
2018-03-27T03:10:14.140Z,1008.62
2018-03-27T03:11:14.121Z,1008.61
2018-03-27T03:12:14.101Z,1008.62
2018-03-27T03:13:14.082Z,1008.63
2018-03-27T03:14:14.061Z,1008.61
2018-03-27T03:15:14.036Z,1008.61
2018-03-27T03:16:14.021Z,1008.59
2018-03-27T03:17:14.001Z,1008.60
2018-03-27T03:18:13.981Z,1008.58
2018-03-27T03:19:13.964Z,1008.56
2018-03-27T03:20:13.999Z,1008.53
2018-03-27T03:21:13.920Z,1008.55
2018-03-27T03:22:13.951Z,1008.59
2018-03-27T03:23:13.884Z,1008.58
2018-03-27T03:24:13.869Z,1008.63
2018-03-27T03:25:13.843Z,1008.61
2018-03-27T03:26:13.873Z,1008.61
2018-03-27T03:27:13.806Z,1008.63
2018-03-27T03:28:13.811Z,1008.61
2018-03-27T03:29:13.769Z,1008.64
2018-03-27T03:30:13.754Z,1008.68
2018-03-27T03:31:13.732Z,1008.70
2018-03-27T03:32:13.710Z,1008.69
2018-03-27T03:33:13.685Z,1008.71
2018-03-27T03:34:13.671Z,1008.68
2018-03-27T03:35:13.651Z,1008.69
2018-03-27T03:36:13.635Z,1008.69
2018-03-27T03:37:13.611Z,1008.69
2018-03-27T03:38:13.593Z,1008.65
2018-03-27T03:39:13.569Z,1008.72
2018-03-27T03:40:13.621Z,1008.71
2018-03-27T03:41:13.529Z,1008.71
2018-03-27T03:42:13.510Z,1008.71
2018-03-27T03:43:13.492Z,1008.70
2018-03-27T03:44:13.472Z,1008.70
2018-03-27T03:45:13.462Z,1008.69
2018-03-27T03:46:13.489Z,1008.71
2018-03-27T03:47:13.420Z,1008.71
2018-03-27T03:48:13.410Z,1008.69
2018-03-27T03:49:13.388Z,1008.71
2018-03-27T03:50:13.361Z,1008.69
2018-03-27T03:51:13.339Z,1008.67
2018-03-27T03:52:13.369Z,1008.66
2018-03-27T03:53:13.293Z,1008.65
2018-03-27T03:54:13.277Z,1008.66
2018-03-27T03:55:13.262Z,1008.64
2018-03-27T03:56:13.242Z,1008.62
2018-03-27T03:57:13.233Z,1008.64
2018-03-27T03:58:13.204Z,1008.61
2018-03-27T03:59:13.180Z,1008.60
2018-03-27T04:00:13.161Z,1008.58
2018-03-27T04:01:13.141Z,1008.58
2018-03-27T04:02:13.120Z,1008.56
2018-03-27T04:03:13.100Z,1008.53
2018-03-27T04:04:13.083Z,1008.50
2018-03-27T04:05:13.060Z,1008.51
2018-03-27T04:06:13.045Z,1008.53
2018-03-27T04:07:13.024Z,1008.52
2018-03-27T04:08:13.010Z,1008.54
2018-03-27T04:09:12.990Z,1008.50
2018-03-27T04:10:12.963Z,1008.48
2018-03-27T04:11:12.946Z,1008.44
2018-03-27T04:12:12.923Z,1008.43
2018-03-27T04:13:12.909Z,1008.45
2018-03-27T04:14:12.895Z,1008.43
2018-03-27T04:15:12.866Z,1008.40
2018-03-27T04:16:12.848Z,1008.41
2018-03-27T04:17:12.833Z,1008.42
2018-03-27T04:18:12.809Z,1008.41
2018-03-27T04:19:12.790Z,1008.42
2018-03-27T04:20:12.772Z,1008.44
2018-03-27T04:21:12.752Z,1008.42
2018-03-27T04:22:12.727Z,1008.41
2018-03-27T04:23:12.707Z,1008.44
2018-03-27T04:24:12.689Z,1008.42
2018-03-27T04:25:12.672Z,1008.40
2018-03-27T04:26:12.659Z,1008.42
2018-03-27T04:27:12.634Z,1008.39
2018-03-27T04:28:12.609Z,1008.41
2018-03-27T04:29:12.590Z,1008.42
2018-03-27T04:30:12.570Z,1008.41
2018-03-27T04:31:12.554Z,1008.39
2018-03-27T04:32:12.539Z,1008.47
2018-03-27T04:33:12.510Z,1008.40
2018-03-27T04:34:12.500Z,1008.41
2018-03-27T04:35:12.483Z,1008.41
2018-03-27T04:36:12.458Z,1008.39
2018-03-27T04:37:12.434Z,1008.38
2018-03-27T04:38:12.420Z,1008.39
2018-03-27T04:39:12.397Z,1008.38
2018-03-27T04:40:12.382Z,1008.35
2018-03-27T04:41:12.354Z,1008.34
2018-03-27T04:42:12.338Z,1008.32
2018-03-27T04:43:12.319Z,1008.31
2018-03-27T04:44:12.349Z,1008.29
2018-03-27T04:45:12.281Z,1008.26
2018-03-27T04:46:12.311Z,1008.27
2018-03-27T04:47:12.251Z,1008.23
2018-03-27T04:48:12.312Z,1008.26
2018-03-27T04:49:12.202Z,1008.26
2018-03-27T04:50:12.227Z,1008.23
2018-03-27T04:51:12.161Z,1008.23
2018-03-27T04:52:12.139Z,1008.27
2018-03-27T04:53:12.121Z,1008.25
2018-03-27T04:54:12.199Z,1008.28
2018-03-27T04:55:12.091Z,1008.26
2018-03-27T04:56:12.063Z,1008.29
2018-03-27T04:57:12.038Z,1008.28
2018-03-27T04:58:12.075Z,1008.28
2018-03-27T04:59:12.000Z,1008.29
2018-03-27T05:00:12.077Z,1008.32
2018-03-27T05:01:11.953Z,1008.34
2018-03-27T05:02:12.000Z,1008.32
2018-03-27T05:03:11.914Z,1008.34
2018-03-27T05:04:12.053Z,1008.36
2018-03-27T05:05:11.872Z,1008.40
2018-03-27T05:06:11.852Z,1008.38
2018-03-27T05:07:11.838Z,1008.40
2018-03-27T05:08:11.862Z,1008.36
2018-03-27T05:09:11.794Z,1008.38
2018-03-27T05:10:11.776Z,1008.36
2018-03-27T05:11:11.754Z,1008.30
2018-03-27T05:12:11.740Z,1008.25
2018-03-27T05:13:11.725Z,1008.30
2018-03-27T05:14:11.695Z,1008.28
2018-03-27T05:15:11.677Z,1008.29
2018-03-27T05:16:11.653Z,1008.32
2018-03-27T05:17:11.639Z,1008.31
2018-03-27T05:18:11.614Z,1008.34
2018-03-27T05:19:11.598Z,1008.31
2018-03-27T05:20:11.576Z,1008.31
2018-03-27T05:21:11.560Z,1008.30
2018-03-27T05:22:11.536Z,1008.34
2018-03-27T05:23:11.516Z,1008.34
2018-03-27T05:24:11.495Z,1008.34
2018-03-27T05:25:11.472Z,1008.31
2018-03-27T05:26:11.451Z,1008.33
2018-03-27T05:27:11.432Z,1008.29
2018-03-27T05:28:11.415Z,1008.29
2018-03-27T05:29:11.392Z,1008.28
2018-03-27T05:30:11.370Z,1008.35
2018-03-27T05:31:11.351Z,1008.29
2018-03-27T05:32:11.338Z,1008.32
2018-03-27T05:33:11.310Z,1008.33
2018-03-27T05:34:11.296Z,1008.31
2018-03-27T05:35:11.270Z,1008.32
2018-03-27T05:36:11.252Z,1008.28
2018-03-27T05:37:11.230Z,1008.29
2018-03-27T05:38:11.210Z,1008.31
2018-03-27T05:39:11.191Z,1008.30
2018-03-27T05:40:11.174Z,1008.31
2018-03-27T05:41:11.148Z,1008.31
2018-03-27T05:42:11.129Z,1008.33
2018-03-27T05:43:11.109Z,1008.34
2018-03-27T05:44:11.090Z,1008.35
2018-03-27T05:45:11.069Z,1008.37
2018-03-27T05:46:11.053Z,1008.38
2018-03-27T05:47:11.031Z,1008.37
2018-03-27T05:48:11.011Z,1008.33
2018-03-27T05:49:10.991Z,1008.35
2018-03-27T05:50:10.966Z,1008.37
2018-03-27T05:51:10.951Z,1008.39
2018-03-27T05:52:10.928Z,1008.36
2018-03-27T05:53:10.910Z,1008.36
2018-03-27T05:54:10.888Z,1008.39
2018-03-27T05:55:10.871Z,1008.37
2018-03-27T05:56:10.849Z,1008.36
2018-03-27T05:57:10.830Z,1008.31
2018-03-27T05:58:10.810Z,1008.28
2018-03-27T05:59:10.798Z,1008.29
2018-03-27T06:00:10.772Z,1008.27
2018-03-27T06:01:10.750Z,1008.26
2018-03-27T06:02:10.781Z,1008.29
2018-03-27T06:03:10.714Z,1008.26
2018-03-27T06:04:10.692Z,1008.29
2018-03-27T06:05:10.671Z,1008.27
2018-03-27T06:06:10.650Z,1008.27
2018-03-27T06:07:10.635Z,1008.25
2018-03-27T06:08:10.651Z,1008.26
2018-03-27T06:09:10.589Z,1008.24
2018-03-27T06:10:10.565Z,1008.27
2018-03-27T06:11:10.554Z,1008.26
2018-03-27T06:12:10.533Z,1008.24
2018-03-27T06:13:10.513Z,1008.22
2018-03-27T06:14:10.494Z,1008.22
2018-03-27T06:15:10.469Z,1008.22
2018-03-27T06:16:10.455Z,1008.27
2018-03-27T06:17:10.431Z,1008.24
2018-03-27T06:18:10.410Z,1008.21
2018-03-27T06:19:10.389Z,1008.22
2018-03-27T06:20:10.369Z,1008.25
2018-03-27T06:21:10.350Z,1008.23
2018-03-27T06:22:10.329Z,1008.26
2018-03-27T06:23:10.305Z,1008.23
2018-03-27T06:24:10.302Z,1008.26
2018-03-27T06:25:10.329Z,1008.23
2018-03-27T06:26:10.258Z,1008.23
2018-03-27T06:27:10.235Z,1008.25
2018-03-27T06:28:10.210Z,1008.24
2018-03-27T06:29:10.189Z,1008.25
2018-03-27T06:30:10.217Z,1008.25
2018-03-27T06:31:10.149Z,1008.25
2018-03-27T06:32:10.280Z,1008.31
2018-03-27T06:33:10.111Z,1008.28
2018-03-27T06:34:10.101Z,1008.25
2018-03-27T06:35:10.070Z,1008.28
2018-03-27T06:36:10.053Z,1008.27
2018-03-27T06:37:10.029Z,1008.29
2018-03-27T06:38:10.023Z,1008.30
2018-03-27T06:39:09.999Z,1008.27
2018-03-27T06:40:09.970Z,1008.28
2018-03-27T06:41:09.949Z,1008.28
2018-03-27T06:42:09.969Z,1008.29
2018-03-27T06:43:09.913Z,1008.29
2018-03-27T06:44:09.896Z,1008.28
2018-03-27T06:45:09.872Z,1008.27
2018-03-27T06:46:09.852Z,1008.26
2018-03-27T06:47:09.832Z,1008.25
2018-03-27T06:48:09.821Z,1008.25
2018-03-27T06:49:09.797Z,1008.26
2018-03-27T06:50:09.783Z,1008.29
2018-03-27T06:51:09.761Z,1008.35
2018-03-27T06:52:09.741Z,1008.30
2018-03-27T06:53:09.724Z,1008.35
2018-03-27T06:54:09.702Z,1008.33
2018-03-27T06:55:09.677Z,1008.37
2018-03-27T06:56:09.664Z,1008.38
2018-03-27T06:57:09.643Z,1008.40
2018-03-27T06:58:09.623Z,1008.40
2018-03-27T06:59:09.600Z,1008.40
2018-03-27T07:00:09.585Z,1008.47
2018-03-27T07:01:09.570Z,1008.42
2018-03-27T07:02:09.589Z,1008.43
2018-03-27T07:03:09.543Z,1008.47
2018-03-27T07:04:09.512Z,1008.44
2018-03-27T07:05:09.491Z,1008.40
2018-03-27T07:06:09.500Z,1008.42
2018-03-27T07:07:09.487Z,1008.38
2018-03-27T07:08:09.438Z,1008.44
2018-03-27T07:09:09.419Z,1008.38
2018-03-27T07:10:09.400Z,1008.37
2018-03-27T07:11:09.416Z,1008.43
2018-03-27T07:12:09.413Z,1008.39
2018-03-27T07:13:09.378Z,1008.43
2018-03-27T07:14:09.339Z,1008.36
2018-03-27T07:15:09.317Z,1008.51
2018-03-27T07:16:09.301Z,1008.49
2018-03-27T07:17:09.291Z,1008.46
2018-03-27T07:18:09.266Z,1008.49
2018-03-27T07:19:09.252Z,1008.39
2018-03-27T07:20:09.242Z,1008.45
2018-03-27T07:21:09.224Z,1008.42
2018-03-27T07:22:09.205Z,1008.42
2018-03-27T07:23:09.188Z,1008.43
2018-03-27T07:24:09.264Z,1008.42
2018-03-27T07:25:09.155Z,1008.41
2018-03-27T07:26:09.249Z,1008.35
2018-03-27T07:27:09.131Z,1008.33
2018-03-27T07:28:09.225Z,1008.32
2018-03-27T07:29:09.105Z,1008.31
2018-03-27T07:30:09.230Z,1008.35
2018-03-27T07:31:09.112Z,1008.28
2018-03-27T07:32:09.050Z,1008.24
2018-03-27T07:33:09.034Z,1008.26
2018-03-27T07:34:09.072Z,1008.27
2018-03-27T07:35:08.999Z,1008.26
2018-03-27T07:36:09.149Z,1008.27
2018-03-27T07:37:08.969Z,1008.26
2018-03-27T07:38:08.955Z,1008.21
2018-03-27T07:39:08.937Z,1008.19
2018-03-27T07:40:08.924Z,1008.12
2018-03-27T07:41:08.932Z,1008.12
2018-03-27T07:42:08.885Z,1008.13
2018-03-27T07:43:08.878Z,1008.12
2018-03-27T07:44:08.919Z,1008.15
2018-03-27T07:45:08.848Z,1008.12
2018-03-27T07:46:08.918Z,1008.12
2018-03-27T07:47:08.799Z,1008.12
2018-03-27T07:48:08.786Z,1008.17
2018-03-27T07:49:08.766Z,1008.14
2018-03-27T07:50:08.749Z,1008.16
2018-03-27T07:51:08.725Z,1008.13
2018-03-27T07:52:08.760Z,1008.17
2018-03-27T07:53:08.691Z,1008.15
2018-03-27T07:54:08.719Z,1008.14
2018-03-27T07:55:08.658Z,1008.09
2018-03-27T07:56:08.687Z,1008.12
2018-03-27T07:57:08.619Z,1008.10
2018-03-27T07:58:08.605Z,1008.10
2018-03-27T07:59:08.580Z,1008.10
2018-03-27T08:00:08.560Z,1008.02
2018-03-27T08:01:08.540Z,1008.04
2018-03-27T08:02:08.529Z,1008.05
2018-03-27T08:03:08.510Z,1008.06
2018-03-27T08:04:08.486Z,1008.02
2018-03-27T08:05:08.470Z,1008.07
2018-03-27T08:06:08.450Z,1008.04
2018-03-27T08:07:08.430Z,1007.95
2018-03-27T08:08:08.420Z,1007.92
2018-03-27T08:09:08.388Z,1007.87
2018-03-27T08:10:08.369Z,1007.88
2018-03-27T08:11:08.420Z,1007.87
2018-03-27T08:12:08.348Z,1007.84
2018-03-27T08:13:08.313Z,1007.84
2018-03-27T08:14:08.292Z,1007.85
2018-03-27T08:15:08.274Z,1007.86
2018-03-27T08:16:08.252Z,1007.81
2018-03-27T08:17:08.235Z,1007.80
2018-03-27T08:18:08.221Z,1007.80
2018-03-27T08:19:08.204Z,1007.80
2018-03-27T08:20:08.180Z,1007.80
2018-03-27T08:21:08.159Z,1007.81
2018-03-27T08:22:08.135Z,1007.87
2018-03-27T08:23:08.119Z,1007.95
2018-03-27T08:24:08.236Z,1007.84
2018-03-27T08:25:08.078Z,1007.79
2018-03-27T08:26:08.072Z,1007.79
2018-03-27T08:27:08.044Z,1007.77
2018-03-27T08:28:08.027Z,1007.74
2018-03-27T08:29:08.009Z,1007.72
2018-03-27T08:30:07.993Z,1007.73
2018-03-27T08:31:07.970Z,1007.69
2018-03-27T08:32:07.946Z,1007.69
2018-03-27T08:33:07.929Z,1007.69
2018-03-27T08:34:07.909Z,1007.67
2018-03-27T08:35:07.904Z,1007.66
2018-03-27T08:36:07.876Z,1007.64
2018-03-27T08:37:07.854Z,1007.62
2018-03-27T08:38:07.839Z,1007.62
2018-03-27T08:39:07.820Z,1007.60
2018-03-27T08:40:07.849Z,1007.61
2018-03-27T08:41:07.780Z,1007.60
2018-03-27T08:42:07.810Z,1007.57
2018-03-27T08:43:07.740Z,1007.51
2018-03-27T08:44:07.773Z,1007.50
2018-03-27T08:45:07.696Z,1007.51
2018-03-27T08:46:07.692Z,1007.53
2018-03-27T08:47:07.661Z,1007.56
2018-03-27T08:48:07.658Z,1007.52
2018-03-27T08:49:07.621Z,1007.56
2018-03-27T08:50:07.710Z,1007.54
2018-03-27T08:51:07.586Z,1007.53
2018-03-27T08:52:07.568Z,1007.55
2018-03-27T08:53:07.549Z,1007.57
2018-03-27T08:54:07.552Z,1007.57
2018-03-27T08:55:07.506Z,1007.57
2018-03-27T08:56:07.510Z,1007.55
2018-03-27T08:57:07.472Z,1007.51
2018-03-27T08:58:07.469Z,1007.51
2018-03-27T08:59:07.436Z,1007.54
2018-03-27T09:00:07.420Z,1007.83
2018-03-27T09:01:07.402Z,1007.67
2018-03-27T09:02:07.432Z,1007.62
2018-03-27T09:03:07.372Z,1007.59
2018-03-27T09:04:07.451Z,1007.54
2018-03-27T09:05:07.334Z,1007.54
2018-03-27T09:06:07.366Z,1007.68
2018-03-27T09:07:07.303Z,1007.80
2018-03-27T09:08:07.286Z,1008.36
2018-03-27T09:09:07.269Z,1008.43
2018-03-27T09:10:07.250Z,1008.45
2018-03-27T09:11:07.232Z,1008.29
2018-03-27T09:12:07.221Z,1008.23
2018-03-27T09:13:07.217Z,1008.38
2018-03-27T09:14:07.203Z,1008.35
2018-03-27T09:15:07.228Z,1008.44
2018-03-27T09:16:07.171Z,1008.45
2018-03-27T09:17:07.162Z,1008.39
2018-03-27T09:18:07.151Z,1008.29
2018-03-27T09:19:07.142Z,1008.32
2018-03-27T09:20:07.122Z,1008.25
2018-03-27T09:21:07.122Z,1008.19
2018-03-27T09:22:07.103Z,1008.17
2018-03-27T09:23:07.090Z,1008.15
2018-03-27T09:24:07.085Z,1008.12
2018-03-27T09:25:07.083Z,1008.16
2018-03-27T09:26:07.069Z,1008.14
2018-03-27T09:27:07.068Z,1008.20
2018-03-27T09:28:07.045Z,1008.22
2018-03-27T09:29:07.035Z,1008.19
2018-03-27T09:30:07.033Z,1008.22
2018-03-27T09:31:07.025Z,1008.25
2018-03-27T09:32:07.012Z,1008.08
2018-03-27T09:33:07.002Z,1008.22
2018-03-27T09:34:06.992Z,1008.17
2018-03-27T09:35:06.987Z,1008.26
2018-03-27T09:36:06.981Z,1008.14
2018-03-27T09:37:06.979Z,1008.08
2018-03-27T09:38:06.958Z,1008.16
2018-03-27T09:39:06.951Z,1008.14
2018-03-27T09:40:06.945Z,1008.18
2018-03-27T09:41:06.937Z,1008.25
2018-03-27T09:42:06.935Z,1008.13
2018-03-27T09:43:06.917Z,1008.07
2018-03-27T09:44:06.910Z,1007.78
2018-03-27T09:45:06.899Z,1007.48
2018-03-27T09:46:06.891Z,1007.44
2018-03-27T09:47:06.895Z,1007.45
2018-03-27T09:48:06.884Z,1007.48
2018-03-27T09:49:06.868Z,1007.43
2018-03-27T09:50:06.860Z,1007.46
2018-03-27T09:51:06.851Z,1007.43
2018-03-27T09:52:06.840Z,1007.49
2018-03-27T09:53:06.842Z,1007.44
2018-03-27T09:54:06.826Z,1007.47
2018-03-27T09:55:06.816Z,1007.40
2018-03-27T09:56:06.807Z,1007.41
2018-03-27T09:57:06.799Z,1007.37
2018-03-27T09:58:06.793Z,1007.40
2018-03-27T09:59:06.783Z,1007.40
2018-03-27T10:00:06.770Z,1007.35
2018-03-27T10:01:06.766Z,1007.33
2018-03-27T10:02:06.755Z,1007.32
2018-03-27T10:03:06.746Z,1007.23
2018-03-27T10:04:06.737Z,1007.22
2018-03-27T10:05:06.728Z,1007.17
2018-03-27T10:06:06.720Z,1007.16
2018-03-27T10:07:06.711Z,1007.18
2018-03-27T10:08:06.703Z,1007.18
2018-03-27T10:09:06.697Z,1007.07
2018-03-27T10:10:06.686Z,1007.09
2018-03-27T10:11:06.673Z,1007.08
2018-03-27T10:12:06.676Z,1007.11
2018-03-27T10:13:06.651Z,1007.07
2018-03-27T10:14:06.641Z,1007.11
2018-03-27T10:15:06.630Z,1007.02
2018-03-27T10:16:06.619Z,1007.06
2018-03-27T10:17:06.614Z,1006.93
2018-03-27T10:18:06.601Z,1006.97
2018-03-27T10:19:06.591Z,1007.01
2018-03-27T10:20:06.584Z,1006.98
2018-03-27T10:21:06.570Z,1007.00
2018-03-27T10:22:06.620Z,1006.99
2018-03-27T10:23:06.551Z,1006.98
2018-03-27T10:24:06.542Z,1006.97
2018-03-27T10:25:06.530Z,1006.96
2018-03-27T10:26:06.520Z,1006.96
2018-03-27T10:27:06.509Z,1006.92
2018-03-27T10:28:06.500Z,1006.93
2018-03-27T10:29:06.501Z,1006.90
2018-03-27T10:30:06.483Z,1006.87
2018-03-27T10:31:06.472Z,1006.78
2018-03-27T10:32:06.464Z,1006.77
2018-03-27T10:33:06.493Z,1006.78
2018-03-27T10:34:06.442Z,1006.72
2018-03-27T10:35:06.431Z,1006.72
2018-03-27T10:36:06.430Z,1006.83
2018-03-27T10:37:06.461Z,1006.74
2018-03-27T10:38:06.485Z,1006.67
2018-03-27T10:39:06.392Z,1006.69
2018-03-27T10:40:06.381Z,1006.70
2018-03-27T10:41:06.372Z,1006.68
2018-03-27T10:42:06.361Z,1006.62
2018-03-27T10:43:06.348Z,1006.65
2018-03-27T10:44:06.492Z,1006.64
2018-03-27T10:45:06.329Z,1006.58
2018-03-27T10:46:06.381Z,1006.50
2018-03-27T10:47:06.300Z,1006.42
2018-03-27T10:48:06.341Z,1006.40
2018-03-27T10:49:06.282Z,1006.48
2018-03-27T10:50:06.276Z,1006.51
2018-03-27T10:51:06.260Z,1006.48
2018-03-27T10:52:06.361Z,1006.46
2018-03-27T10:53:06.239Z,1006.47
2018-03-27T10:54:06.276Z,1006.37
2018-03-27T10:55:06.214Z,1006.38
2018-03-27T10:56:06.203Z,1006.34
2018-03-27T10:57:06.189Z,1006.31
2018-03-27T10:58:06.198Z,1006.31
2018-03-27T10:59:06.169Z,1006.35
2018-03-27T11:00:06.161Z,1006.22
2018-03-27T11:01:06.155Z,1006.23
2018-03-27T11:02:06.138Z,1006.14
2018-03-27T11:03:06.125Z,1006.10
2018-03-27T11:04:06.123Z,1006.04
2018-03-27T11:05:06.102Z,1006.24
2018-03-27T11:06:06.092Z,1006.12
2018-03-27T11:07:06.077Z,1006.04
2018-03-27T11:08:06.067Z,1006.01
2018-03-27T11:09:06.052Z,1005.99
2018-03-27T11:10:06.052Z,1006.05
2018-03-27T11:11:06.034Z,1005.99
2018-03-27T11:12:06.020Z,1006.00
2018-03-27T11:13:06.009Z,1005.97
2018-03-27T11:14:05.992Z,1005.97
2018-03-27T11:15:05.982Z,1005.88
2018-03-27T11:16:05.974Z,1005.86
2018-03-27T11:17:05.960Z,1005.83
2018-03-27T11:18:05.943Z,1005.80
2018-03-27T11:19:05.933Z,1005.82
2018-03-27T11:20:05.922Z,1005.79
2018-03-27T11:21:05.913Z,1005.83
2018-03-27T11:22:05.892Z,1005.82
2018-03-27T11:23:05.878Z,1005.82
2018-03-27T11:24:05.869Z,1005.75
2018-03-27T11:25:05.852Z,1005.73
2018-03-27T11:26:05.849Z,1005.72
2018-03-27T11:27:05.835Z,1005.71
2018-03-27T11:28:05.814Z,1005.69
2018-03-27T11:29:05.801Z,1005.69
2018-03-27T11:30:05.794Z,1005.68
2018-03-27T11:31:05.773Z,1005.59
2018-03-27T11:32:05.762Z,1005.62
2018-03-27T11:33:05.750Z,1005.59
2018-03-27T11:34:05.736Z,1005.53
2018-03-27T11:35:05.723Z,1005.50
2018-03-27T11:36:05.713Z,1005.46
2018-03-27T11:37:05.706Z,1005.51
2018-03-27T11:38:05.692Z,1005.50
2018-03-27T11:39:05.680Z,1005.52
2018-03-27T11:40:05.659Z,1005.45
2018-03-27T11:41:05.642Z,1005.47
2018-03-27T11:42:05.637Z,1005.38
2018-03-27T11:43:05.621Z,1005.37
2018-03-27T11:44:05.607Z,1005.38
2018-03-27T11:45:05.590Z,1005.34
2018-03-27T11:46:05.582Z,1005.32
2018-03-27T11:47:05.561Z,1005.32
2018-03-27T11:48:05.554Z,1005.31
2018-03-27T11:49:05.548Z,1005.32
2018-03-27T11:50:05.527Z,1005.28
2018-03-27T11:51:05.515Z,1005.27
2018-03-27T11:52:05.517Z,1005.25
2018-03-27T11:53:05.488Z,1005.17
2018-03-27T11:54:05.471Z,1005.13
2018-03-27T11:55:05.458Z,1005.08
2018-03-27T11:56:05.450Z,1005.05
2018-03-27T11:57:05.430Z,1004.99
2018-03-27T11:58:05.421Z,1005.03
2018-03-27T11:59:05.405Z,1005.01
2018-03-27T12:00:05.401Z,1005.01
2018-03-27T12:01:05.382Z,1005.02
2018-03-27T12:02:05.369Z,1004.99
2018-03-27T12:03:05.359Z,1004.92
2018-03-27T12:04:05.341Z,1004.92
2018-03-27T12:05:05.332Z,1004.91